Nearby METAR Reports

 

KHOB - Hobbs, New Mexico, USA
Distance from station: S 40mi, 65km
Updated: Sat, 14-Dec-2019 4:35am MST
Clear
Clear
 Wind from NE
Wind: NE 5 mph , 7 km/h
Temperature: 37°F , 3°C
Wind Chill: 33°F , 1°C
Dew Point: 28°F , -2°C
Humidity: 70%
Barometer: 29.85 inHg , 1010.8 hPa
Clouds: Clear
Visibility: 10 miles , 16 km
2019/12/14 11:35 KHOB 141135Z AUTO 04004KT 10SM CLR 03/M02 A2985 RMK AO2
KGNC - Seminole, Texas, USA
Distance from station: SE 55mi, 89km
Updated: Sat, 14-Dec-2019 4:35am MST
Clear
Clear
 Wind from N
Wind: N 3 mph , 6 km/h
Temperature: 37°F , 3°C
Dew Point: 28°F , -2°C
Humidity: 70%
Barometer: 29.91 inHg , 1012.9 hPa
Clouds: Clear
Visibility: 10 miles , 16 km
2019/12/14 11:35 KGNC 141135Z AUTO 01003KT 10SM CLR 03/M02 A2991 RMK AO2 T00251024
 
KROW - Roswell, New Mexico, USA
Distance from station: W 67mi, 108km
Updated: Sat, 14-Dec-2019 3:51am MST
Clear
Clear
 Wind from NNW
Wind: NNW 8 mph , 13 km/h
Temperature: 37°F , 3°C
Wind Chill: 31°F , -1°C
Dew Point: 28°F , -2°C
Humidity: 70%
Barometer: 29.85 inHg , 1010.8 hPa
Clouds: Clear
Visibility: 10 miles , 16 km
2019/12/14 10:51 KROW 141051Z 34007KT 10SM CLR 03/M02 A2985 RMK AO2 SLP072 T00281017
KATS - Artesia, New Mexico, USA
Distance from station: WSW 71mi, 114km
Updated: Sat, 14-Dec-2019 4:35am MST
Clear
Clear
 Wind from NNE
Wind: NNE 8 mph , 13 km/h
Temperature: 37°F , 3°C
Wind Chill: 31°F , -1°C
Dew Point: 32°F , 0°C
Humidity: 81%
Barometer: 29.85 inHg , 1010.8 hPa
Clouds: Clear
Visibility: 10 miles , 16 km
2019/12/14 11:35 KATS 141135Z AUTO 02007KT 10SM CLR 03/00 A2985 RMK AO2
 
KCVS - Cannon AFB,Clovis, New Mexico, USA
Distance from station: 0 78mi, 125km
Updated: Sat, 14-Dec-2019 3:58am MST
Clear
Clear
 Wind from NE
Wind: NE 8 mph , 13 km/h
Temperature: 36°F , 2°C
Wind Chill: 30°F , -1°C
Dew Point: 23°F , -5°C
Humidity: 60%
Barometer: 29.89 inHg , 1012.2 hPa
Clouds: Clear
Visibility: 10 miles , 16 km
2019/12/14 10:58 KCVS 141058Z AUTO 05007KT 10SM CLR 02/M05 A2989 RMK AO2 SLP099 T00151046 $
KE11 - Andrews, Texas, USA
Distance from station: SE 78mi, 126km
Updated: Sat, 14-Dec-2019 4:35am MST
Clear
Clear
 Wind from calm
Wind: Calm
Temperature: 41°F , 5°C
Dew Point: 28°F , -2°C
Humidity: 61%
Barometer: 29.87 inHg , 1011.5 hPa
Clouds: Clear
Visibility: 10 miles , 16 km
2019/12/14 11:35 KE11 141135Z AUTO 00000KT 10SM CLR 05/M02 A2987 RMK AO2 T00521022
 
KCNM - Carlsbad, New Mexico, USA
Distance from station: SW 82mi, 132km
Updated: Sat, 14-Dec-2019 3:53am MST
Clear
Clear
 Wind from calm
Wind: Calm
Temperature: 39°F , 4°C
Dew Point: 34°F , 1°C
Humidity: 81%
Barometer: 29.84 inHg , 1010.5 hPa
Clouds: Clear
Visibility: 10 miles , 16 km
2019/12/14 10:53 KCNM 141053Z AUTO 00000KT 10SM CLR 04/01 A2984 RMK AO2 SLP078 T00440006 $
KCVN - Clovis Muni, New Mexico, USA
Distance from station: N 83mi, 133km
Updated: Sat, 14-Dec-2019 3:56am MST
Clear
Clear
 Wind from NE
Wind: NE 7 mph , 11 km/h
Temperature: 30°F , -1°C
Wind Chill: 23°F , -5°C
Dew Point: 25°F , -4°C
Humidity: 80%
Barometer: 29.89 inHg , 1012.2 hPa
Clouds: Clear
Visibility: 10 miles , 16 km
2019/12/14 10:56 KCVN 141056Z AUTO 05006KT 10SM CLR M01/M04 A2989 RMK AO2 SLP117 T10061039 FZRANO
 
KLBB - Lubbock, Texas, USA
Distance from station: ENE 92mi, 149km
Updated: Sat, 14-Dec-2019 3:53am MST
Partly cloudy
Partly cloudy
 Wind from ENE
Wind: ENE 10 mph , 17 km/h
Temperature: 37°F , 3°C
Wind Chill: 30°F , -1°C
Dew Point: 27°F , -3°C
Humidity: 65%
Barometer: 29.85 inHg , 1010.8 hPa
Clouds: Partly cloudy
Visibility: 10 miles , 16 km
Cloud details: Partly cloudy 25000 ft
2019/12/14 10:53 KLBB 141053Z 06009KT 10SM SCT250 03/M03 A2985 RMK AO2 SLP086 T00331033 $
KINK - Wink, Texas, USA
Distance from station: S 101mi, 163km
Updated: Sat, 14-Dec-2019 3:53am MST
Clear
Clear
 Wind from calm
Wind: Calm
Temperature: 39°F , 4°C
Dew Point: 36°F , 2°C
Humidity: 87%
Barometer: 29.86 inHg , 1011.2 hPa
Clouds: Clear
Visibility: 10 miles , 16 km
2019/12/14 10:53 KINK 141053Z AUTO 00000KT 10SM CLR 04/02 A2986 RMK AO2 SLP087 T00440022
 
KMAF - Midland, Texas, USA
Distance from station: SE 111mi, 179km
Updated: Sat, 14-Dec-2019 3:53am MST
Clear
Clear
 Wind from SW
Wind: SW 6 mph , 9 km/h
Temperature: 43°F , 6°C
Wind Chill: 39°F , 4°C
Dew Point: 34°F , 1°C
Humidity: 71%
Barometer: 29.87 inHg , 1011.5 hPa
Clouds: Clear
Visibility: 10 miles , 16 km
2019/12/14 10:53 KMAF 141053Z 22005KT 10SM CLR 06/01 A2987 RMK AO2 SLP086 T00610006
KSRR - Sierra B/Ruidoso, New Mexico, USA
Distance from station: W 127mi, 204km
Updated: Sat, 14-Dec-2019 4:35am MST
Clear
Clear
 Wind from SW
Wind: SW 16 mph , 26 km/h, Gust: 23 mph , 37 km/h
Temperature: 46°F , 8°C
Wind Chill: 39°F , 4°C
Dew Point: 23°F , -5°C
Humidity: 40%
Barometer: 29.93 inHg , 1013.5 hPa
Clouds: Clear
Visibility: 10 miles , 16 km
2019/12/14 11:35 KSRR 141135Z AUTO 23014G20KT 10SM CLR 08/M05 A2993 RMK AO2
 
KGDP - Guadalupe Pass, Texas, USA
Distance from station: SW 130mi, 209km
Updated: Sat, 14-Dec-2019 3:51am MST
Clear
Clear
 Wind from WSW
Wind: WSW 37 mph , 59 km/h, Gust: 44 mph , 70 km/h
Temperature: 48°F , 9°C
Wind Chill: 38°F , 3°C
Dew Point: 32°F , 0°C
Humidity: 54%
Barometer: 29.93 inHg , 1013.5 hPa
Clouds: Clear
Visibility: 10 miles , 16 km
2019/12/14 10:51 KGDP 141051Z AUTO 25032G38KT 10SM CLR 09/00 A2993 RMK AO2 PK WND 26040/1033 SLP090 T00940000